header
chart

Reported and forecast weather at local airports

Important: not to be used for flight planning purposes.


EGBB METAR fetched   Monday 23rd Nov @ 22:38:28
EGBB 232220Z 19008KT 150V220 9999 FEW011 SCT021 09/07 Q1020

EGCC METAR fetched   Monday 23rd Nov @ 22:38:23
EGCC 232220Z AUTO 19008KT 150V220 9999 BKN021 10/08 Q1018 NOSIG

EGGP METAR fetched   Monday 23rd Nov @ 22:38:24
EGGP 232220Z AUTO 16012KT 9999 OVC023/// 12/08 Q1017

EGNH METAR fetched   Monday 23rd Nov @ 22:38:25
EGNH 232050Z 21014KT 9999 SCT025 11/09 Q1017

EGNM METAR fetched   Monday 23rd Nov @ 22:38:27
EGNM 231750Z 20011KT 9999 BKN018 09/06 Q1019

EGOV METAR fetched   Monday 23rd Nov @ 22:38:29
EGOV 232150Z AUTO 21028KT 9999 SCT007/// BKN016/// BKN023/// 12/11 Q1016 REUP


EGBB TAF fetched   Monday 23rd Nov @ 22:38:29
TAF TAF EGBB 231654Z 2318/2418 20008KT 9999 SCT020 PROB30 TEMPO 2318/2418 6000 -RADZ BKN010 PROB30 TEMPO 2320/2412 21015G25KT

EGCC TAF fetched   Monday 23rd Nov @ 22:38:23
TAF EGCC 231654Z 2318/2424 19012KT 9999 SCT022 PROB40 TEMPO 2318/2424 BKN014 PROB30 TEMPO 2318/2406 19015G25KT PROB40 TEMPO 2411/2424 19015G25KT PROB30 TEMPO 2423/2424 7000 -RADZ

EGGP TAF fetched   Monday 23rd Nov @ 22:38:25
TAF EGGP 231654Z 2318/2418 18012KT 9999 SCT022 PROB40 TEMPO 2318/2406 BKN014 PROB30 TEMPO 2318/2403 21015G25KT 7000 -RA

EGNM TAF fetched   Monday 23rd Nov @ 22:38:27
TAF TAF EGNM 231939Z 2318/2418 CNL

EGOV TAF fetched   Monday 23rd Nov @ 22:38:30
TAF TAF EGOV 190525Z 1906/1918 04008KT CAVOK PROB30 TEMPO 1906/1912 6000 SHRA TEMPO 1912/1915 4000 +SHRA SCT020 BKN030CB PROB30 TEMPO 1913/1915 VRBG20G30KT 2500 TSGR BKN012

Every effort is made to ensure that this information is free from errors but as it is provided by a third party the accuracy of the reports cannot be guaranteed.